Time;durP1;ratioP1;P1;durP2;ratioP2;P2;SDS_P1;SDS_P2;PMS_P1;PMS_P2;Temp;Humidity;BMP_temperature;BMP_pressure;BME280_temperature;BME280_humidity;BME280_pressure;Samples;Min_cycle;Max_cycle;Signal;HPM_P1;HPM_P2
2022/01/20 00:01:50;;;;;;;3.70;3.40;;;7.60;39.00;;;;;;10512204;28;20234;-72
2022/01/20 00:07:27;;;;;;;4.17;3.80;;;7.60;39.00;;;;;;10510979;28;20223;-72
2022/01/20 00:23:30;;;;;;;3.70;3.40;;;7.50;38.90;;;;;;10505891;28;20223;-72
2022/01/20 00:28:42;;;;;;;4.00;3.70;;;7.50;38.80;;;;;;10513373;28;20232;-72
2022/01/20 00:33:49;;;;;;;4.93;4.33;;;7.50;39.20;;;;;;10505271;28;20231;-72
2022/01/20 00:38:53;;;;;;;4.27;3.87;;;7.50;38.90;;;;;;10503328;28;20219;-72
2022/01/20 00:43:57;;;;;;;4.50;4.10;;;7.50;38.80;;;;;;10509836;28;20219;-72
2022/01/20 00:49:00;;;;;;;3.67;3.37;;;7.50;39.00;;;;;;10509915;28;20228;-72
2022/01/20 00:54:04;;;;;;;4.03;3.63;;;7.50;39.10;;;;;;10514520;28;20971;-71
2022/01/20 00:59:08;;;;;;;4.20;3.80;;;7.50;38.90;;;;;;10505135;28;20325;-71
2022/01/20 01:04:11;;;;;;;3.77;3.47;;;7.40;39.10;;;;;;10504987;28;20217;-72
2022/01/20 01:09:16;;;;;;;4.13;3.77;;;7.40;39.10;;;;;;10507924;28;20232;-71
2022/01/20 01:14:21;;;;;;;3.90;3.60;;;7.40;39.00;;;;;;10506858;28;20235;-71
2022/01/20 01:24:50;;;;;;;3.93;3.63;;;7.40;39.00;;;;;;10503199;28;20672;-72
2022/01/20 01:30:06;;;;;;;3.60;3.30;;;7.40;38.80;;;;;;10502213;28;20227;-72
2022/01/20 01:35:11;;;;;;;3.97;3.67;;;7.40;39.00;;;;;;10501844;28;20216;-71
2022/01/20 01:40:15;;;;;;;3.80;3.50;;;7.40;39.20;;;;;;10503840;28;20224;-71
2022/01/20 01:45:21;;;;;;;4.43;4.03;;;7.30;39.10;;;;;;10503288;28;20222;-72
2022/01/20 01:50:25;;;;;;;3.97;3.60;;;7.30;38.70;;;;;;10509830;28;20227;-72
2022/01/20 01:55:31;;;;;;;3.97;3.67;;;7.30;39.10;;;;;;10504429;28;20232;-72
2022/01/20 02:00:34;;;;;;;3.90;3.60;;;7.30;39.00;;;;;;10507219;28;20220;-72
2022/01/20 02:05:49;;;;;;;3.90;3.50;;;7.30;38.70;;;;;;10507563;28;20227;-71
2022/01/20 02:21:47;;;;;;;3.33;3.03;;;7.20;39.00;;;;;;10508684;28;20254;-72
2022/01/20 02:26:50;;;;;;;3.50;3.20;;;7.30;39.00;;;;;;10504447;28;20571;-72
2022/01/20 02:31:55;;;;;;;3.63;3.33;;;7.20;39.30;;;;;;10499579;28;20227;-72
2022/01/20 02:37:06;;;;;;;3.07;2.77;;;7.20;39.30;;;;;;10509354;28;20330;-71
2022/01/20 02:47:36;;;;;;;3.20;2.90;;;7.20;39.20;;;;;;10500306;28;20738;-71
2022/01/20 02:52:41;;;;;;;3.50;3.20;;;7.20;39.50;;;;;;10504265;28;20283;-71
2022/01/20 02:57:44;;;;;;;3.03;2.83;;;7.10;39.50;;;;;;10501469;28;20234;-71
2022/01/20 03:02:48;;;;;;;3.67;3.30;;;7.10;39.60;;;;;;10502901;28;20220;-70
2022/01/20 03:07:53;;;;;;;3.10;2.80;;;7.10;39.60;;;;;;10508179;28;20231;-70
2022/01/20 03:12:56;;;;;;;3.20;3.00;;;7.10;39.60;;;;;;10507662;28;20235;-70
2022/01/20 03:18:00;;;;;;;3.80;2.97;;;7.00;39.70;;;;;;10500787;28;20604;-70
2022/01/20 03:23:05;;;;;;;3.13;2.83;;;7.00;39.80;;;;;;10504803;28;20219;-70
2022/01/20 03:28:08;;;;;;;3.20;3.00;;;6.90;40.00;;;;;;10505612;28;20239;-70
2022/01/20 03:33:12;;;;;;;3.10;2.90;;;6.90;40.10;;;;;;10506317;28;20231;-70
2022/01/20 03:38:16;;;;;;;3.50;3.20;;;6.80;40.20;;;;;;10500442;28;20231;-70
2022/01/20 03:43:20;;;;;;;3.23;3.00;;;6.80;40.50;;;;;;10501796;28;20235;-70
2022/01/20 03:48:26;;;;;;;3.83;3.50;;;6.70;40.50;;;;;;10505508;28;20228;-69
2022/01/20 03:53:33;;;;;;;3.00;2.80;;;6.60;40.60;;;;;;10504968;28;20240;-69
2022/01/20 03:58:36;;;;;;;2.83;2.63;;;6.40;41.60;;;;;;10509019;28;20326;-69
2022/01/20 04:03:39;;;;;;;3.47;3.17;;;6.40;40.70;;;;;;10511122;28;20231;-69
2022/01/20 04:08:46;;;;;;;3.33;3.03;;;6.30;41.00;;;;;;10509080;28;20766;-69
2022/01/20 04:13:50;;;;;;;4.67;3.43;;;6.20;41.20;;;;;;10514349;28;20232;-69
2022/01/20 04:18:56;;;;;;;3.50;3.20;;;6.10;41.20;;;;;;10507758;28;20238;-69
2022/01/20 04:24:02;;;;;;;3.70;3.40;;;6.10;41.50;;;;;;10506303;28;20243;-69
2022/01/20 04:29:07;;;;;;;3.90;3.50;;;6.00;41.50;;;;;;10511133;28;20702;-69
2022/01/20 04:34:11;;;;;;;4.80;3.87;;;6.00;41.60;;;;;;10508129;28;20219;-69
2022/01/20 04:39:21;;;;;;;3.80;3.50;;;6.00;41.60;;;;;;10509534;28;20224;-69
2022/01/20 04:44:37;;;;;;;3.93;3.50;;;6.00;41.80;;;;;;10513968;28;20223;-69
2022/01/20 05:00:23;;;;;;;3.80;3.50;;;5.90;42.10;;;;;;10511285;28;20223;-71
2022/01/20 05:05:27;;;;;;;3.60;3.30;;;5.90;41.90;;;;;;10504989;28;20224;-71
2022/01/20 05:10:34;;;;;;;4.37;3.50;;;5.90;42.00;;;;;;10489974;28;20235;-70
2022/01/20 05:15:37;;;;;;;3.60;3.30;;;5.90;42.40;;;;;;10493002;28;20224;-70
2022/01/20 05:20:40;;;;;;;3.97;3.57;;;5.90;42.30;;;;;;10493269;28;20831;-71
2022/01/20 05:25:45;;;;;;;4.10;3.80;;;5.80;42.20;;;;;;10490216;28;20223;-70
2022/01/20 05:30:48;;;;;;;4.00;3.70;;;5.80;42.60;;;;;;10489150;28;20227;-70
2022/01/20 05:35:51;;;;;;;4.10;3.70;;;5.80;42.40;;;;;;10495649;28;20238;-71
2022/01/20 05:40:56;;;;;;;3.97;3.67;;;5.80;42.50;;;;;;10495099;28;20590;-71
2022/01/20 05:45:59;;;;;;;3.90;3.60;;;5.80;42.90;;;;;;10499043;28;20220;-70
2022/01/20 05:51:03;;;;;;;3.87;3.57;;;5.80;42.70;;;;;;10503402;28;20228;-69
2022/01/20 05:56:08;;;;;;;4.33;3.17;;;5.80;42.70;;;;;;10499414;28;20237;-71
2022/01/20 06:01:11;;;;;;;3.27;2.97;;;5.80;43.00;;;;;;10503208;28;20590;-71
2022/01/20 06:06:14;;;;;;;5.10;3.30;;;5.80;42.50;;;;;;10501715;28;20737;-73
2022/01/20 06:11:19;;;;;;;3.90;3.60;;;5.90;42.80;;;;;;10500128;28;20216;-72
2022/01/20 06:16:22;;;;;;;3.90;3.60;;;5.80;43.40;;;;;;10501140;28;20236;-72
2022/01/20 06:21:25;;;;;;;4.07;3.77;;;5.80;42.90;;;;;;10504060;28;20261;-68
2022/01/20 06:26:30;;;;;;;3.70;3.40;;;5.80;43.30;;;;;;10505965;28;20595;-68
2022/01/20 06:31:33;;;;;;;3.70;3.40;;;5.90;43.20;;;;;;10508750;28;20219;-69
2022/01/20 06:36:37;;;;;;;3.47;3.23;;;5.80;43.00;;;;;;10504913;28;20239;-68
2022/01/20 06:41:41;;;;;;;3.50;3.20;;;5.90;42.90;;;;;;10507104;28;20223;-69
2022/01/20 06:46:45;;;;;;;3.20;2.93;;;5.90;43.10;;;;;;10504511;28;20602;-68
2022/01/20 06:51:49;;;;;;;3.67;3.37;;;5.90;43.00;;;;;;10507148;28;20595;-68
2022/01/20 06:56:53;;;;;;;4.17;3.77;;;5.90;43.10;;;;;;10504327;28;20231;-68
2022/01/20 07:01:57;;;;;;;3.70;3.40;;;5.90;43.20;;;;;;10504943;28;20223;-68
2022/01/20 07:07:01;;;;;;;3.27;3.03;;;5.90;43.30;;;;;;10508123;28;20223;-68
2022/01/20 07:12:06;;;;;;;3.77;3.47;;;5.90;43.30;;;;;;10508710;28;20219;-68
2022/01/20 07:17:10;;;;;;;3.40;3.20;;;6.00;43.20;;;;;;10508617;28;20236;-68
2022/01/20 07:22:13;;;;;;;3.40;3.10;;;6.00;43.20;;;;;;10501940;28;20234;-68
2022/01/20 07:27:21;;;;;;;3.37;3.17;;;6.00;43.00;;;;;;10504550;28;20745;-68
2022/01/20 07:32:24;;;;;;;3.80;3.50;;;6.00;43.20;;;;;;10514338;28;20238;-72
2022/01/20 07:37:27;;;;;;;3.23;3.03;;;6.00;43.10;;;;;;10515378;28;20223;-72
2022/01/20 07:42:32;;;;;;;3.23;3.03;;;6.00;43.20;;;;;;10514317;28;20231;-72
2022/01/20 07:47:35;;;;;;;3.43;3.23;;;6.00;43.30;;;;;;10515157;28;20594;-70
2022/01/20 07:52:38;;;;;;;4.10;3.40;;;6.10;43.30;;;;;;10515552;28;20215;-70
2022/01/20 07:57:43;;;;;;;4.00;3.70;;;6.10;43.10;;;;;;10515692;28;20225;-70
2022/01/20 08:02:46;;;;;;;3.87;3.57;;;6.10;43.40;;;;;;10501547;28;20649;-72
2022/01/20 08:07:50;;;;;;;3.70;3.40;;;6.10;44.00;;;;;;10509087;28;20230;-71
2022/01/20 08:12:54;;;;;;;3.30;3.00;;;6.10;43.20;;;;;;10506064;28;20599;-70
2022/01/20 08:17:57;;;;;;;3.50;3.20;;;6.10;43.60;;;;;;10506809;28;20231;-70
2022/01/20 08:23:01;;;;;;;3.67;3.37;;;6.10;43.40;;;;;;10507042;28;20306;-70
2022/01/20 08:28:06;;;;;;;3.70;3.40;;;6.20;43.30;;;;;;10505167;28;20234;-71
2022/01/20 08:33:09;;;;;;;3.77;3.47;;;6.20;43.30;;;;;;10507954;28;20224;-70
2022/01/20 08:38:12;;;;;;;3.53;3.23;;;6.30;43.40;;;;;;10506141;28;20230;-71
2022/01/20 08:43:17;;;;;;;4.00;3.60;;;6.30;43.40;;;;;;10507771;28;20690;-70
2022/01/20 08:48:21;;;;;;;4.10;3.80;;;6.30;43.80;;;;;;10504826;28;20232;-70
2022/01/20 08:53:24;;;;;;;3.67;3.37;;;6.40;43.70;;;;;;10513690;28;20227;-70
2022/01/20 08:58:28;;;;;;;3.17;2.97;;;6.40;43.60;;;;;;10514512;28;20224;-70
2022/01/20 09:03:33;;;;;;;3.07;2.87;;;6.40;43.70;;;;;;10514132;28;20226;-70
2022/01/20 09:08:37;;;;;;;3.33;3.03;;;6.40;43.50;;;;;;10507228;28;20234;-70
2022/01/20 09:19:02;;;;;;;4.40;3.10;;;6.50;43.60;;;;;;10506668;28;20592;-70
2022/01/20 09:24:09;;;;;;;3.40;3.10;;;6.60;43.20;;;;;;10505081;28;20549;-70
2022/01/20 09:29:13;;;;;;;3.30;2.80;;;6.60;43.20;;;;;;10507143;28;20234;-70
2022/01/20 09:34:16;;;;;;;3.17;2.90;;;6.60;43.20;;;;;;10510999;28;20224;-72
2022/01/20 09:39:20;;;;;;;3.90;3.37;;;6.70;43.30;;;;;;10508846;28;20223;-72
2022/01/20 09:44:26;;;;;;;3.20;3.00;;;6.70;43.20;;;;;;10511451;28;20227;-72
2022/01/20 09:49:29;;;;;;;4.27;3.87;;;6.70;43.20;;;;;;10508581;28;20219;-72
2022/01/20 09:54:33;;;;;;;5.33;4.83;;;6.70;43.20;;;;;;10504864;28;20228;-72
2022/01/20 09:59:37;;;;;;;5.40;3.60;;;6.70;43.10;;;;;;10501891;28;20230;-72
2022/01/20 10:04:41;;;;;;;3.57;3.00;;;6.80;43.00;;;;;;10499809;28;20751;-70
2022/01/20 10:09:47;;;;;;;3.13;2.60;;;6.80;43.70;;;;;;10501720;28;20223;-70
2022/01/20 10:14:55;;;;;;;3.40;3.10;;;6.80;43.00;;;;;;10501696;28;20307;-70
2022/01/20 10:20:00;;;;;;;5.57;4.30;;;6.80;42.80;;;;;;10496416;28;20238;-70
2022/01/20 10:25:08;;;;;;;4.57;3.20;;;6.80;42.90;;;;;;10498743;28;20694;-70
2022/01/20 10:30:14;;;;;;;6.67;4.87;;;6.90;43.20;;;;;;10505421;28;20216;-70
2022/01/20 10:35:19;;;;;;;7.90;3.00;;;7.00;43.30;;;;;;10506439;28;20227;-70
2022/01/20 10:40:22;;;;;;;5.80;4.57;;;7.10;42.70;;;;;;10510373;28;20864;-70
2022/01/20 10:45:28;;;;;;;6.97;3.03;;;7.10;42.60;;;;;;10494481;28;22115;-68
2022/01/20 10:50:36;;;;;;;5.30;2.80;;;7.10;42.70;;;;;;10498657;28;20235;-68
2022/01/20 10:55:39;;;;;;;4.57;3.00;;;7.10;42.70;;;;;;10499212;28;20231;-70
2022/01/20 11:00:46;;;;;;;3.93;2.87;;;7.10;42.50;;;;;;10496696;28;20234;-68
2022/01/20 11:05:51;;;;;;;3.63;2.27;;;7.10;42.40;;;;;;10506955;28;20227;-68
2022/01/20 11:10:54;;;;;;;5.07;2.80;;;7.10;42.50;;;;;;10505802;28;20231;-68
2022/01/20 11:15:59;;;;;;;4.10;2.53;;;7.20;42.70;;;;;;10508859;28;20224;-67
2022/01/20 11:21:02;;;;;;;3.10;2.70;;;7.20;42.60;;;;;;10509527;28;20223;-70
2022/01/20 11:26:06;;;;;;;6.10;2.80;;;7.20;42.70;;;;;;10504491;28;20235;-70
2022/01/20 11:31:11;;;;;;;5.33;2.53;;;7.20;42.80;;;;;;10509784;28;20219;-70
2022/01/20 11:36:23;;;;;;;3.33;2.50;;;7.20;42.80;;;;;;10517433;28;20228;-70
2022/01/20 11:41:49;;;;;;;3.13;2.47;;;7.20;43.00;;;;;;10514611;28;20226;-69
2022/01/20 11:47:04;;;;;;;4.03;1.73;;;7.10;42.90;;;;;;10507136;28;20273;-69
2022/01/20 11:52:08;;;;;;;2.67;2.20;;;7.10;42.90;;;;;;10498891;28;20230;-69
2022/01/20 11:57:13;;;;;;;2.70;2.07;;;7.10;42.70;;;;;;10503103;28;20232;-69
2022/01/20 12:02:29;;;;;;;2.40;1.83;;;7.20;43.20;;;;;;10498500;28;21231;-67
2022/01/20 12:07:34;;;;;;;4.17;2.10;;;7.20;43.40;;;;;;10495393;28;20230;-68
2022/01/20 12:12:39;;;;;;;4.57;2.20;;;7.30;42.80;;;;;;10498091;28;20614;-67
2022/01/20 12:17:50;;;;;;;4.07;2.10;;;7.30;42.60;;;;;;10501376;28;20227;-68
2022/01/20 12:22:55;;;;;;;3.70;2.13;;;7.20;42.80;;;;;;10496653;28;20219;-68
2022/01/20 12:28:06;;;;;;;4.27;1.80;;;7.20;42.60;;;;;;10494411;28;20228;-68
2022/01/20 12:33:14;;;;;;;3.87;2.23;;;7.20;42.70;;;;;;10492677;28;20219;-69
2022/01/20 12:38:21;;;;;;;3.80;2.03;;;7.20;42.90;;;;;;10495858;28;20225;-69
2022/01/20 12:43:37;;;;;;;4.37;2.20;;;7.10;42.90;;;;;;10495576;28;20232;-68
2022/01/20 12:48:57;;;;;;;5.40;2.63;;;7.20;43.10;;;;;;10495421;28;20224;-69
2022/01/20 12:54:06;;;;;;;3.90;2.00;;;7.20;43.20;;;;;;10483877;28;20331;-69
2022/01/20 12:59:10;;;;;;;3.00;2.50;;;7.20;42.70;;;;;;10495327;28;21339;-72
2022/01/20 13:04:36;;;;;;;2.17;1.97;;;7.20;42.70;;;;;;10498277;28;20219;-71
2022/01/20 13:09:42;;;;;;;2.70;2.20;;;7.20;42.70;;;;;;10496861;28;20322;-70
2022/01/20 13:14:48;;;;;;;3.83;1.70;;;7.10;42.50;;;;;;10503066;28;20242;-71
2022/01/20 13:19:54;;;;;;;3.43;2.13;;;7.10;42.50;;;;;;10501811;28;20224;-71
2022/01/20 13:25:06;;;;;;;2.37;1.90;;;7.00;42.70;;;;;;10502526;28;20392;-71
2022/01/20 13:30:10;;;;;;;1.93;1.70;;;7.00;43.00;;;;;;10493318;28;20707;-70
2022/01/20 13:35:14;;;;;;;3.70;2.03;;;6.90;42.80;;;;;;10502318;28;20235;-70
2022/01/20 13:40:21;;;;;;;3.40;1.97;;;6.80;42.90;;;;;;10499254;28;20236;-71
2022/01/20 13:45:24;;;;;;;5.67;4.80;;;6.80;43.20;;;;;;10502998;28;20516;-71
2022/01/20 13:50:31;;;;;;;1.40;1.30;;;6.70;42.70;;;;;;10504546;28;20426;-71
2022/01/20 13:55:39;;;;;;;0.90;0.90;;;6.50;42.30;;;;;;10500599;28;20234;-71
2022/01/20 14:00:43;;;;;;;0.93;0.90;;;6.20;42.30;;;;;;10500780;28;21251;-71
2022/01/20 14:05:49;;;;;;;0.80;0.80;;;5.90;42.50;;;;;;10500040;28;20296;-71
2022/01/20 14:10:53;;;;;;;1.20;0.70;;;5.60;42.80;;;;;;10497179;28;20246;-71
2022/01/20 14:16:01;;;;;;;1.00;0.80;;;5.40;43.10;;;;;;10503581;28;20810;-71
2022/01/20 14:21:08;;;;;;;1.23;0.97;;;5.30;43.00;;;;;;10496281;28;20596;-70
2022/01/20 14:26:13;;;;;;;2.13;1.00;;;5.30;43.00;;;;;;10499173;28;20227;-70
2022/01/20 14:31:17;;;;;;;2.23;1.10;;;5.30;42.60;;;;;;10502942;28;20334;-70
2022/01/20 14:36:21;;;;;;;2.97;1.10;;;5.30;41.70;;;;;;10500539;28;20968;-70
2022/01/20 14:41:24;;;;;;;3.93;1.13;;;5.30;41.90;;;;;;10501605;28;20215;-71
2022/01/20 14:46:27;;;;;;;1.77;0.90;;;5.30;41.70;;;;;;10494270;28;20243;-71
2022/01/20 14:51:32;;;;;;;2.63;1.10;;;5.40;41.50;;;;;;10494734;28;20721;-71
2022/01/20 14:56:36;;;;;;;3.70;1.30;;;5.40;41.10;;;;;;10498008;28;20623;-71
2022/01/20 15:01:40;;;;;;;2.23;1.43;;;5.40;40.90;;;;;;10496068;28;20235;-71
2022/01/20 15:06:45;;;;;;;2.93;1.20;;;5.50;41.30;;;;;;10494871;28;20220;-70
2022/01/20 15:11:48;;;;;;;3.40;1.30;;;5.50;40.90;;;;;;10498695;28;20215;-71
2022/01/20 15:16:52;;;;;;;3.30;1.30;;;5.50;41.10;;;;;;10498728;28;20224;-68
2022/01/20 15:21:56;;;;;;;2.20;2.00;;;5.60;40.30;;;;;;10499023;28;20901;-69
2022/01/20 15:27:00;;;;;;;2.63;1.77;;;5.60;40.30;;;;;;10492543;28;20596;-69
2022/01/20 15:32:07;;;;;;;4.00;1.60;;;5.60;40.20;;;;;;10499271;28;20773;-69
2022/01/20 15:37:12;;;;;;;4.67;2.10;;;5.60;40.20;;;;;;10499217;28;20229;-68
2022/01/20 15:42:15;;;;;;;9.33;6.07;;;5.60;40.20;;;;;;10498404;28;20223;-69
2022/01/20 15:47:19;;;;;;;4.83;3.40;;;5.70;40.10;;;;;;10496822;28;20243;-68
2022/01/20 15:52:23;;;;;;;2.63;2.00;;;5.70;40.40;;;;;;10499242;28;20235;-69
2022/01/20 15:57:26;;;;;;;3.67;2.57;;;5.80;40.50;;;;;;10508919;28;20227;-69
2022/01/20 16:02:30;;;;;;;5.53;2.47;;;5.80;40.40;;;;;;10508953;28;20239;-73
2022/01/20 16:07:34;;;;;;;2.10;1.40;;;5.80;40.20;;;;;;10516002;28;20972;-72
2022/01/20 16:12:38;;;;;;;2.30;1.90;;;5.70;40.10;;;;;;10500243;28;20227;-72
2022/01/20 16:17:41;;;;;;;3.93;1.60;;;5.80;40.40;;;;;;10503150;28;20228;-73
2022/01/20 16:22:46;;;;;;;2.83;1.50;;;5.80;40.00;;;;;;10504230;28;20211;-72
2022/01/20 16:27:49;;;;;;;2.90;1.70;;;5.70;39.70;;;;;;10509045;28;20719;-71
2022/01/20 16:32:52;;;;;;;4.23;2.70;;;5.70;39.80;;;;;;10513003;28;20234;-71
2022/01/20 16:37:57;;;;;;;4.30;1.83;;;5.70;39.70;;;;;;10512561;28;20250;-71
2022/01/20 16:43:00;;;;;;;3.37;1.83;;;5.60;39.90;;;;;;10505301;28;20230;-71
2022/01/20 16:48:04;;;;;;;3.93;2.00;;;5.60;40.10;;;;;;10508567;28;20220;-71
2022/01/20 16:53:08;;;;;;;3.30;1.80;;;5.60;40.00;;;;;;10506057;28;20242;-71
2022/01/20 16:58:11;;;;;;;3.77;1.80;;;5.60;39.70;;;;;;10510668;28;20246;-71
2022/01/20 17:03:17;;;;;;;4.57;2.70;;;5.60;40.40;;;;;;10511294;28;20974;-71
2022/01/20 17:08:22;;;;;;;6.80;3.37;;;5.60;39.90;;;;;;10509707;28;20603;-71
2022/01/20 17:13:25;;;;;;;8.53;4.73;;;5.60;39.70;;;;;;10502064;28;20239;-71
2022/01/20 17:18:29;;;;;;;4.07;2.63;;;5.70;39.80;;;;;;10498378;28;20250;-72
2022/01/20 17:23:33;;;;;;;7.43;2.33;;;5.70;39.50;;;;;;10500818;28;20231;-71
2022/01/20 17:28:37;;;;;;;3.63;2.23;;;5.60;39.50;;;;;;10500954;28;20228;-71
2022/01/20 17:33:40;;;;;;;5.33;2.53;;;5.60;39.60;;;;;;10498130;28;20220;-71
2022/01/20 17:38:45;;;;;;;3.90;1.97;;;5.60;39.30;;;;;;10503956;28;20230;-69
2022/01/20 17:43:48;;;;;;;2.57;1.73;;;5.50;39.40;;;;;;10503456;28;20602;-72
2022/01/20 17:48:52;;;;;;;3.20;1.90;;;5.40;39.60;;;;;;10503488;28;20269;-69
2022/01/20 17:53:57;;;;;;;4.67;2.20;;;5.40;39.90;;;;;;10495273;28;21004;-69
2022/01/20 17:59:01;;;;;;;8.23;3.57;;;5.50;39.80;;;;;;10499391;28;20231;-69
2022/01/20 18:04:04;;;;;;;5.37;3.03;;;5.40;39.60;;;;;;10499972;28;20231;-69
2022/01/20 18:09:09;;;;;;;4.77;2.73;;;5.40;39.90;;;;;;10496874;28;20231;-69
2022/01/20 18:14:12;;;;;;;2.77;2.40;;;5.30;39.80;;;;;;10501279;28;20227;-69
2022/01/20 18:19:15;;;;;;;3.97;2.60;;;5.30;39.90;;;;;;10497683;28;20248;-70
2022/01/20 18:24:20;;;;;;;3.33;2.43;;;5.30;40.10;;;;;;10499191;28;20255;-70
2022/01/20 18:29:23;;;;;;;4.67;2.70;;;5.30;40.20;;;;;;10506080;28;20255;-70
2022/01/20 18:34:26;;;;;;;4.20;2.93;;;5.40;40.30;;;;;;10496415;28;20234;-70
2022/01/20 18:39:30;;;;;;;9.60;3.20;;;5.40;40.30;;;;;;10506735;28;20229;-71
2022/01/20 18:44:34;;;;;;;6.50;2.70;;;5.40;40.40;;;;;;10499745;28;20226;-70
2022/01/20 18:49:37;;;;;;;4.03;3.40;;;5.40;40.30;;;;;;10501269;28;20233;-70
2022/01/20 18:54:42;;;;;;;3.63;2.60;;;5.30;40.30;;;;;;10505928;28;20223;-70
2022/01/20 18:59:45;;;;;;;4.47;2.83;;;5.30;40.30;;;;;;10503708;28;21175;-68
2022/01/20 19:04:49;;;;;;;3.53;2.80;;;5.30;40.40;;;;;;10497431;28;20754;-69
2022/01/20 19:09:54;;;;;;;5.67;2.87;;;5.30;40.40;;;;;;10495164;28;20238;-68
2022/01/20 19:14:57;;;;;;;4.33;2.40;;;5.20;40.30;;;;;;10498768;28;20726;-68
2022/01/20 19:20:00;;;;;;;3.97;2.40;;;5.20;40.10;;;;;;10499484;28;20232;-69
2022/01/20 19:25:08;;;;;;;5.33;2.37;;;5.10;40.00;;;;;;10497957;28;20809;-69
2022/01/20 19:30:12;;;;;;;4.07;2.20;;;5.00;39.80;;;;;;10497497;28;20277;-69
2022/01/20 19:35:16;;;;;;;2.53;1.80;;;4.90;39.80;;;;;;10492938;28;20220;-71
2022/01/20 19:40:22;;;;;;;3.90;2.10;;;4.90;40.10;;;;;;10498787;28;20228;-71
2022/01/20 19:45:26;;;;;;;3.50;1.90;;;4.80;39.90;;;;;;10501887;28;20714;-71
2022/01/20 19:50:32;;;;;;;2.87;2.03;;;4.80;40.10;;;;;;10504527;28;20317;-70
2022/01/20 19:55:37;;;;;;;4.87;1.77;;;4.70;39.90;;;;;;10499822;28;20245;-71
2022/01/20 20:00:40;;;;;;;4.50;2.10;;;4.60;39.90;;;;;;10502065;28;20236;-71
2022/01/20 20:05:46;;;;;;;3.20;1.90;;;4.60;39.90;;;;;;10499900;28;20318;-71
2022/01/20 20:10:51;;;;;;;6.23;2.23;;;4.60;39.90;;;;;;10500972;28;20226;-71
2022/01/20 20:15:55;;;;;;;3.93;1.80;;;4.60;39.80;;;;;;10499547;28;21051;-71
2022/01/20 20:20:59;;;;;;;5.87;2.00;;;4.50;39.80;;;;;;10494929;28;20272;-71
2022/01/20 20:26:04;;;;;;;4.07;1.80;;;4.70;39.90;;;;;;10497964;28;20322;-68
2022/01/20 20:31:07;;;;;;;5.83;1.90;;;4.50;39.90;;;;;;10497596;28;20215;-69
2022/01/20 20:36:12;;;;;;;2.23;1.53;;;4.50;39.80;;;;;;10495425;28;20235;-69
2022/01/20 20:41:16;;;;;;;2.90;1.70;;;4.50;40.00;;;;;;10493834;28;20220;-68
2022/01/20 20:46:19;;;;;;;3.30;1.90;;;4.40;39.70;;;;;;10494803;28;20229;-68
2022/01/20 20:51:23;;;;;;;4.23;1.97;;;4.40;39.70;;;;;;10491922;28;20232;-69
2022/01/20 20:56:28;;;;;;;5.97;2.43;;;4.40;40.00;;;;;;10494968;28;20606;-69
2022/01/20 21:01:31;;;;;;;4.73;1.90;;;4.40;39.80;;;;;;10493819;28;20310;-69
2022/01/20 21:06:34;;;;;;;4.63;2.23;;;4.40;40.10;;;;;;10495284;28;20227;-69
2022/01/20 21:11:39;;;;;;;4.43;2.20;;;4.40;40.10;;;;;;10495235;28;20306;-69
2022/01/20 21:16:42;;;;;;;4.03;2.40;;;4.50;40.20;;;;;;10499409;28;20314;-69
2022/01/20 21:21:46;;;;;;;3.27;2.30;;;4.50;40.10;;;;;;10496618;28;20219;-69
2022/01/20 21:26:50;;;;;;;6.00;2.90;;;4.50;40.30;;;;;;10488569;28;20239;-69
2022/01/20 21:31:54;;;;;;;5.87;2.93;;;4.50;40.30;;;;;;10491597;28;20928;-69
2022/01/20 21:36:57;;;;;;;5.73;2.77;;;4.60;40.30;;;;;;10492483;28;20239;-69
2022/01/20 21:42:02;;;;;;;4.83;3.00;;;4.60;40.40;;;;;;10495069;28;20224;-68
2022/01/20 21:47:07;;;;;;;4.83;2.80;;;4.50;40.30;;;;;;10492257;28;20217;-69
2022/01/20 21:52:11;;;;;;;4.30;2.80;;;4.50;40.30;;;;;;10491947;28;20231;-69
2022/01/20 21:57:15;;;;;;;5.93;2.97;;;4.50;40.20;;;;;;10491039;28;20224;-68
2022/01/20 22:02:19;;;;;;;4.87;3.00;;;4.50;40.00;;;;;;10490641;28;20890;-71
2022/01/20 22:07:22;;;;;;;5.20;2.80;;;4.60;40.30;;;;;;10500990;28;20309;-71
2022/01/20 22:12:27;;;;;;;6.60;2.80;;;4.50;40.10;;;;;;10505242;28;20735;-71
2022/01/20 22:17:30;;;;;;;5.27;2.77;;;4.50;40.00;;;;;;10503418;28;20220;-71
2022/01/20 22:22:33;;;;;;;4.63;2.93;;;4.40;40.10;;;;;;10501686;28;20801;-71
2022/01/20 22:27:38;;;;;;;3.60;2.73;;;4.50;40.00;;;;;;10500824;28;20219;-71
2022/01/20 22:32:41;;;;;;;5.53;3.00;;;4.50;39.80;;;;;;10496484;28;20244;-71
2022/01/20 22:37:45;;;;;;;6.73;3.10;;;4.60;40.00;;;;;;10500649;28;20728;-71
2022/01/20 22:42:50;;;;;;;4.50;2.97;;;4.50;40.00;;;;;;10501852;28;20228;-71
2022/01/20 22:47:53;;;;;;;6.30;2.60;;;4.60;39.80;;;;;;10505719;28;20231;-71
2022/01/20 22:52:57;;;;;;;4.87;2.60;;;4.50;40.10;;;;;;10500897;28;20215;-71
2022/01/20 22:58:01;;;;;;;5.00;2.63;;;4.60;40.20;;;;;;10501869;28;20228;-71
2022/01/20 23:03:05;;;;;;;6.47;2.80;;;4.50;39.90;;;;;;10499345;28;20768;-71
2022/01/20 23:08:09;;;;;;;6.40;3.17;;;4.60;40.00;;;;;;10500034;28;20224;-71
2022/01/20 23:13:14;;;;;;;4.93;2.80;;;4.50;39.80;;;;;;10502052;28;20223;-69
2022/01/20 23:18:32;;;;;;;3.97;2.83;;;4.60;40.00;;;;;;10499761;28;20224;-69
2022/01/20 23:23:44;;;;;;;5.17;2.77;;;4.50;40.00;;;;;;10499512;28;20226;-69
2022/01/20 23:28:50;;;;;;;5.37;2.83;;;4.40;39.80;;;;;;10499601;28;20228;-68
2022/01/20 23:33:56;;;;;;;5.13;2.70;;;4.40;40.10;;;;;;10498713;28;20223;-69
2022/01/20 23:39:01;;;;;;;5.03;2.50;;;4.40;40.20;;;;;;10498119;28;20227;-68
2022/01/20 23:44:29;;;;;;;5.30;3.07;;;4.40;40.30;;;;;;10498361;28;20219;-69
2022/01/20 23:49:32;;;;;;;7.93;3.10;;;4.30;40.20;;;;;;10498371;28;20652;-69
2022/01/20 23:54:35;;;;;;;6.30;3.23;;;4.30;40.30;;;;;;10495445;28;20500;-68
2022/01/20 23:59:40;;;;;;;6.00;2.90;;;4.30;40.40;;;;;;10501723;28;20227;-68
